sensor_id;sensor_type;location;lat;lon;timestamp;pressure;altitude;pressure_sealevel;temperature;humidity
9839;BME280;4958;48.150;11.506;2022-10-13T00:02:12;96141.75;;;13.18;85.27
9839;BME280;4958;48.150;11.506;2022-10-13T00:04:39;96146.69;;;13.27;84.68
9839;BME280;4958;48.150;11.506;2022-10-13T00:07:05;96150.84;;;13.28;85.00
9839;BME280;4958;48.150;11.506;2022-10-13T00:09:32;96149.25;;;13.27;85.18
9839;BME280;4958;48.150;11.506;2022-10-13T00:11:59;96142.09;;;13.29;85.41
9839;BME280;4958;48.150;11.506;2022-10-13T00:14:25;96136.56;;;13.32;85.53
9839;BME280;4958;48.150;11.506;2022-10-13T00:16:53;96132.38;;;13.31;85.38
9839;BME280;4958;48.150;11.506;2022-10-13T00:19:19;96134.16;;;13.31;85.59
9839;BME280;4958;48.150;11.506;2022-10-13T00:21:46;96138.81;;;13.35;85.14
9839;BME280;4958;48.150;11.506;2022-10-13T00:24:12;96132.19;;;13.33;85.50
9839;BME280;4958;48.150;11.506;2022-10-13T00:26:39;96136.75;;;13.31;85.33
9839;BME280;4958;48.150;11.506;2022-10-13T00:29:05;96134.97;;;13.31;85.39
9839;BME280;4958;48.150;11.506;2022-10-13T00:31:32;96130.78;;;13.30;85.06
9839;BME280;4958;48.150;11.506;2022-10-13T00:34:00;96133.19;;;13.32;84.86
9839;BME280;4958;48.150;11.506;2022-10-13T00:36:27;96132.31;;;13.25;84.47
9839;BME280;4958;48.150;11.506;2022-10-13T00:38:55;96127.31;;;13.23;84.45
9839;BME280;4958;48.150;11.506;2022-10-13T00:41:22;96133.03;;;13.19;84.41
9839;BME280;4958;48.150;11.506;2022-10-13T00:43:57;96130.94;;;13.14;83.91
9839;BME280;4958;48.150;11.506;2022-10-13T00:46:26;96127.09;;;13.10;83.33
9839;BME280;4958;48.150;11.506;2022-10-13T00:48:53;96130.31;;;13.12;83.42
9839;BME280;4958;48.150;11.506;2022-10-13T00:51:25;96128.53;;;13.12;83.33
9839;BME280;4958;48.150;11.506;2022-10-13T00:53:53;96132.88;;;13.12;83.50
9839;BME280;4958;48.150;11.506;2022-10-13T00:56:21;96137.63;;;13.08;82.75
9839;BME280;4958;48.150;11.506;2022-10-13T00:58:49;96126.75;;;12.98;83.11
9839;BME280;4958;48.150;11.506;2022-10-13T01:01:16;96128.19;;;13.01;83.01
9839;BME280;4958;48.150;11.506;2022-10-13T01:03:43;96122.91;;;12.94;83.36
9839;BME280;4958;48.150;11.506;2022-10-13T01:06:10;96127.03;;;12.89;84.55
9839;BME280;4958;48.150;11.506;2022-10-13T01:08:38;96138.06;;;12.97;83.86
9839;BME280;4958;48.150;11.506;2022-10-13T01:11:14;96134.22;;;12.93;83.38
9839;BME280;4958;48.150;11.506;2022-10-13T01:13:49;96130.94;;;12.99;82.91
9839;BME280;4958;48.150;11.506;2022-10-13T01:16:25;96126.47;;;12.78;82.57
9839;BME280;4958;48.150;11.506;2022-10-13T01:18:58;96126.47;;;12.78;82.57
9839;BME280;4958;48.150;11.506;2022-10-13T01:21:32;96139.72;;;12.75;82.14
9839;BME280;4958;48.150;11.506;2022-10-13T01:24:29;96134.47;;;12.69;81.42
9839;BME280;4958;48.150;11.506;2022-10-13T01:27:30;96133.06;;;12.66;81.40
9839;BME280;4958;48.150;11.506;2022-10-13T01:30:09;96125.00;;;12.61;81.75
9839;BME280;4958;48.150;11.506;2022-10-13T01:32:46;96137.00;;;12.54;81.90
9839;BME280;4958;48.150;11.506;2022-10-13T01:35:20;96138.97;;;12.52;81.39
9839;BME280;4958;48.150;11.506;2022-10-13T01:37:54;96136.59;;;12.51;80.88
9839;BME280;4958;48.150;11.506;2022-10-13T01:40:25;96142.22;;;12.31;80.57
9839;BME280;4958;48.150;11.506;2022-10-13T01:42:57;96134.13;;;12.34;81.32
9839;BME280;4958;48.150;11.506;2022-10-13T01:45:30;96143.13;;;12.38;80.85
9839;BME280;4958;48.150;11.506;2022-10-13T01:47:58;96142.31;;;12.38;80.80
9839;BME280;4958;48.150;11.506;2022-10-13T01:50:27;96144.69;;;12.25;80.90
9839;BME280;4958;48.150;11.506;2022-10-13T01:52:54;96134.53;;;12.23;81.21
9839;BME280;4958;48.150;11.506;2022-10-13T01:55:21;96141.75;;;12.05;81.31
9839;BME280;4958;48.150;11.506;2022-10-13T01:57:47;96133.09;;;11.98;82.24
9839;BME280;4958;48.150;11.506;2022-10-13T02:00:15;96135.03;;;11.96;82.38
9839;BME280;4958;48.150;11.506;2022-10-13T02:02:53;96133.25;;;11.96;82.81
9839;BME280;4958;48.150;11.506;2022-10-13T02:05:28;96140.50;;;12.01;82.74
9839;BME280;4958;48.150;11.506;2022-10-13T02:08:01;96131.75;;;12.10;82.20
9839;BME280;4958;48.150;11.506;2022-10-13T02:10:33;96140.72;;;12.14;81.56
9839;BME280;4958;48.150;11.506;2022-10-13T02:13:02;96144.22;;;12.21;81.51
9839;BME280;4958;48.150;11.506;2022-10-13T02:15:32;96149.06;;;12.24;80.89
9839;BME280;4958;48.150;11.506;2022-10-13T02:18:02;96146.47;;;12.24;80.25
9839;BME280;4958;48.150;11.506;2022-10-13T02:20:29;96156.78;;;12.24;80.03
9839;BME280;4958;48.150;11.506;2022-10-13T02:23:00;96156.16;;;12.22;79.52
9839;BME280;4958;48.150;11.506;2022-10-13T02:25:28;96151.50;;;12.18;79.45
9839;BME280;4958;48.150;11.506;2022-10-13T02:27:57;96147.50;;;12.15;79.20
9839;BME280;4958;48.150;11.506;2022-10-13T02:30:26;96147.84;;;12.12;79.93
9839;BME280;4958;48.150;11.506;2022-10-13T02:32:53;96148.28;;;12.16;80.18
9839;BME280;4958;48.150;11.506;2022-10-13T02:35:21;96141.19;;;12.18;80.44
9839;BME280;4958;48.150;11.506;2022-10-13T02:37:47;96144.66;;;12.10;80.48
9839;BME280;4958;48.150;11.506;2022-10-13T02:40:14;96142.41;;;12.07;80.60
9839;BME280;4958;48.150;11.506;2022-10-13T02:42:40;96136.91;;;12.10;80.82
9839;BME280;4958;48.150;11.506;2022-10-13T02:45:08;96137.28;;;11.99;81.39
9839;BME280;4958;48.150;11.506;2022-10-13T02:47:35;96132.75;;;12.01;81.73
9839;BME280;4958;48.150;11.506;2022-10-13T02:50:01;96136.44;;;12.06;81.76
9839;BME280;4958;48.150;11.506;2022-10-13T02:52:29;96131.56;;;12.12;82.35
9839;BME280;4958;48.150;11.506;2022-10-13T02:54:56;96140.56;;;12.16;82.92
9839;BME280;4958;48.150;11.506;2022-10-13T02:57:22;96137.00;;;12.17;83.08
9839;BME280;4958;48.150;11.506;2022-10-13T02:59:49;96135.94;;;12.11;83.61
9839;BME280;4958;48.150;11.506;2022-10-13T03:02:15;96136.53;;;12.13;83.79
9839;BME280;4958;48.150;11.506;2022-10-13T03:04:42;96130.22;;;12.16;83.83
9839;BME280;4958;48.150;11.506;2022-10-13T03:07:09;96127.81;;;12.14;84.48
9839;BME280;4958;48.150;11.506;2022-10-13T03:09:37;96125.06;;;12.16;84.15
9839;BME280;4958;48.150;11.506;2022-10-13T03:12:04;96120.59;;;12.09;84.95
9839;BME280;4958;48.150;11.506;2022-10-13T03:14:30;96120.44;;;12.11;84.83
9839;BME280;4958;48.150;11.506;2022-10-13T03:16:57;96120.59;;;12.09;84.88
9839;BME280;4958;48.150;11.506;2022-10-13T03:19:23;96123.34;;;12.08;84.16
9839;BME280;4958;48.150;11.506;2022-10-13T03:21:49;96114.31;;;12.12;83.96
9839;BME280;4958;48.150;11.506;2022-10-13T03:24:16;96110.91;;;12.12;83.13
9839;BME280;4958;48.150;11.506;2022-10-13T03:26:44;96112.88;;;12.09;82.99
9839;BME280;4958;48.150;11.506;2022-10-13T03:29:12;96116.41;;;12.08;82.85
9839;BME280;4958;48.150;11.506;2022-10-13T03:31:38;96114.00;;;12.07;82.83
9839;BME280;4958;48.150;11.506;2022-10-13T03:34:05;96110.28;;;12.09;82.71
9839;BME280;4958;48.150;11.506;2022-10-13T03:36:32;96113.50;;;12.12;82.72
9839;BME280;4958;48.150;11.506;2022-10-13T03:38:58;96117.91;;;12.03;83.24
9839;BME280;4958;48.150;11.506;2022-10-13T03:41:25;96117.13;;;11.94;83.29
9839;BME280;4958;48.150;11.506;2022-10-13T03:43:53;96124.28;;;11.92;83.51
9839;BME280;4958;48.150;11.506;2022-10-13T03:46:19;96129.13;;;11.87;84.17
9839;BME280;4958;48.150;11.506;2022-10-13T03:48:46;96126.25;;;11.82;84.84
9839;BME280;4958;48.150;11.506;2022-10-13T03:51:14;96129.81;;;11.81;85.29
9839;BME280;4958;48.150;11.506;2022-10-13T03:53:41;96134.00;;;11.82;85.28
9839;BME280;4958;48.150;11.506;2022-10-13T03:56:11;96125.59;;;11.88;84.71
9839;BME280;4958;48.150;11.506;2022-10-13T03:58:39;96136.19;;;11.93;84.00
9839;BME280;4958;48.150;11.506;2022-10-13T04:01:09;96140.66;;;11.99;83.57
9839;BME280;4958;48.150;11.506;2022-10-13T04:03:35;96136.78;;;12.03;83.35
9839;BME280;4958;48.150;11.506;2022-10-13T04:06:03;96137.91;;;12.01;83.14
9839;BME280;4958;48.150;11.506;2022-10-13T04:08:31;96140.97;;;12.04;83.28
9839;BME280;4958;48.150;11.506;2022-10-13T04:10:58;96140.63;;;12.07;83.41
9839;BME280;4958;48.150;11.506;2022-10-13T04:13:24;96138.69;;;12.09;83.52
9839;BME280;4958;48.150;11.506;2022-10-13T04:15:51;96137.69;;;12.10;83.51
9839;BME280;4958;48.150;11.506;2022-10-13T04:18:18;96137.56;;;12.04;84.11
9839;BME280;4958;48.150;11.506;2022-10-13T04:20:45;96143.38;;;12.06;84.31
9839;BME280;4958;48.150;11.506;2022-10-13T04:23:12;96141.13;;;12.03;84.62
9839;BME280;4958;48.150;11.506;2022-10-13T04:25:38;96137.56;;;12.04;84.62
9839;BME280;4958;48.150;11.506;2022-10-13T04:28:05;96145.16;;;12.05;84.88
9839;BME280;4958;48.150;11.506;2022-10-13T04:30:32;96137.88;;;12.09;84.91
9839;BME280;4958;48.150;11.506;2022-10-13T04:32:59;96141.91;;;12.12;84.87
9839;BME280;4958;48.150;11.506;2022-10-13T04:35:27;96139.47;;;12.10;85.22
9839;BME280;4958;48.150;11.506;2022-10-13T04:37:54;96138.69;;;12.09;85.33
9839;BME280;4958;48.150;11.506;2022-10-13T04:40:21;96134.50;;;12.08;85.93
9839;BME280;4958;48.150;11.506;2022-10-13T04:42:48;96134.16;;;12.12;85.69
9839;BME280;4958;48.150;11.506;2022-10-13T04:45:14;96135.63;;;12.06;86.64
9839;BME280;4958;48.150;11.506;2022-10-13T04:47:41;96142.75;;;12.04;87.14
9839;BME280;4958;48.150;11.506;2022-10-13T04:50:09;96130.75;;;12.11;86.90
9839;BME280;4958;48.150;11.506;2022-10-13T04:52:37;96127.47;;;12.17;86.58
9839;BME280;4958;48.150;11.506;2022-10-13T04:55:04;96134.59;;;12.15;87.66
9839;BME280;4958;48.150;11.506;2022-10-13T04:57:30;96132.97;;;12.14;87.38
9839;BME280;4958;48.150;11.506;2022-10-13T04:59:57;96121.34;;;12.18;87.54
9839;BME280;4958;48.150;11.506;2022-10-13T05:02:23;96115.66;;;12.23;87.68
9839;BME280;4958;48.150;11.506;2022-10-13T05:04:50;96119.34;;;12.28;87.64
9839;BME280;4958;48.150;11.506;2022-10-13T05:07:16;96117.09;;;12.25;88.34
9839;BME280;4958;48.150;11.506;2022-10-13T05:09:44;96117.56;;;12.29;88.25
9839;BME280;4958;48.150;11.506;2022-10-13T05:12:10;96119.97;;;12.30;88.43
9839;BME280;4958;48.150;11.506;2022-10-13T05:14:37;96111.69;;;12.35;88.66
9839;BME280;4958;48.150;11.506;2022-10-13T05:17:03;96113.91;;;12.38;88.70
9839;BME280;4958;48.150;11.506;2022-10-13T05:19:30;96116.50;;;12.38;89.36
9839;BME280;4958;48.150;11.506;2022-10-13T05:21:56;96117.13;;;12.40;89.98
9839;BME280;4958;48.150;11.506;2022-10-13T05:24:23;96118.56;;;12.42;92.98
9839;BME280;4958;48.150;11.506;2022-10-13T05:26:56;96117.47;;;12.37;93.97
9839;BME280;4958;48.150;11.506;2022-10-13T05:29:23;96118.69;;;12.49;91.83
9839;BME280;4958;48.150;11.506;2022-10-13T05:31:49;96123.03;;;12.49;93.60
9839;BME280;4958;48.150;11.506;2022-10-13T05:34:15;96120.81;;;12.60;91.27
9839;BME280;4958;48.150;11.506;2022-10-13T05:36:42;96114.00;;;12.67;90.58
9839;BME280;4958;48.150;11.506;2022-10-13T05:39:09;96119.59;;;12.71;90.25
9839;BME280;4958;48.150;11.506;2022-10-13T05:41:35;96123.19;;;12.70;90.79
9839;BME280;4958;48.150;11.506;2022-10-13T05:44:06;96121.34;;;12.70;90.22
9839;BME280;4958;48.150;11.506;2022-10-13T05:46:34;96122.63;;;12.74;90.52
9839;BME280;4958;48.150;11.506;2022-10-13T05:49:00;96120.94;;;12.82;89.91
9839;BME280;4958;48.150;11.506;2022-10-13T05:51:29;96115.06;;;12.88;90.40
9839;BME280;4958;48.150;11.506;2022-10-13T05:54:01;96117.50;;;12.89;89.98
9839;BME280;4958;48.150;11.506;2022-10-13T05:56:32;96111.13;;;12.92;89.94
9839;BME280;4958;48.150;11.506;2022-10-13T05:59:06;96113.72;;;12.92;90.53
9839;BME280;4958;48.150;11.506;2022-10-13T06:01:37;96112.31;;;12.89;90.97
9839;BME280;4958;48.150;11.506;2022-10-13T06:04:07;96116.94;;;12.94;90.79
9839;BME280;4958;48.150;11.506;2022-10-13T06:06:35;96119.34;;;12.95;91.09
9839;BME280;4958;48.150;11.506;2022-10-13T06:09:02;96118.00;;;12.99;90.73
9839;BME280;4958;48.150;11.506;2022-10-13T06:11:28;96119.28;;;13.03;90.73
9839;BME280;4958;48.150;11.506;2022-10-13T06:13:55;96114.34;;;13.08;91.12
9839;BME280;4958;48.150;11.506;2022-10-13T06:16:23;96118.19;;;13.12;90.85
9839;BME280;4958;48.150;11.506;2022-10-13T06:18:49;96116.88;;;13.17;91.21
9839;BME280;4958;48.150;11.506;2022-10-13T06:21:16;96116.34;;;13.21;90.59
9839;BME280;4958;48.150;11.506;2022-10-13T06:23:42;96116.63;;;13.26;90.64
9839;BME280;4958;48.150;11.506;2022-10-13T06:26:09;96113.06;;;13.27;91.58
9839;BME280;4958;48.150;11.506;2022-10-13T06:28:35;96120.06;;;13.33;90.66
9839;BME280;4958;48.150;11.506;2022-10-13T06:31:03;96120.25;;;13.32;92.05
9839;BME280;4958;48.150;11.506;2022-10-13T06:33:32;96119.09;;;13.34;92.13
9839;BME280;4958;48.150;11.506;2022-10-13T06:36:00;96121.31;;;13.37;92.08
9839;BME280;4958;48.150;11.506;2022-10-13T06:38:27;96125.88;;;13.35;92.44
9839;BME280;4958;48.150;11.506;2022-10-13T06:40:58;96116.31;;;13.36;92.87
9839;BME280;4958;48.150;11.506;2022-10-13T06:43:24;96125.78;;;13.43;92.18
9839;BME280;4958;48.150;11.506;2022-10-13T06:45:51;96120.78;;;13.42;93.00
9839;BME280;4958;48.150;11.506;2022-10-13T06:48:17;96115.09;;;13.46;92.58
9839;BME280;4958;48.150;11.506;2022-10-13T06:50:46;96119.69;;;13.51;92.70
9839;BME280;4958;48.150;11.506;2022-10-13T06:53:12;96122.38;;;13.58;92.34
9839;BME280;4958;48.150;11.506;2022-10-13T06:55:39;96119.84;;;13.64;92.02
9839;BME280;4958;48.150;11.506;2022-10-13T06:58:07;96129.81;;;13.67;92.24
9839;BME280;4958;48.150;11.506;2022-10-13T07:00:34;96119.09;;;13.70;92.49
9839;BME280;4958;48.150;11.506;2022-10-13T07:03:00;96121.53;;;13.72;92.96
9839;BME280;4958;48.150;11.506;2022-10-13T07:05:26;96124.38;;;13.77;92.74
9839;BME280;4958;48.150;11.506;2022-10-13T07:07:55;96126.25;;;13.83;92.46
9839;BME280;4958;48.150;11.506;2022-10-13T07:10:21;96118.66;;;13.81;92.76
9839;BME280;4958;48.150;11.506;2022-10-13T07:12:48;96125.25;;;13.84;93.26
9839;BME280;4958;48.150;11.506;2022-10-13T07:15:14;96121.09;;;13.90;92.58
9839;BME280;4958;48.150;11.506;2022-10-13T07:17:41;96125.94;;;13.93;92.89
9839;BME280;4958;48.150;11.506;2022-10-13T07:20:08;96117.19;;;13.94;93.26
9839;BME280;4958;48.150;11.506;2022-10-13T07:22:34;96118.59;;;13.96;93.49
9839;BME280;4958;48.150;11.506;2022-10-13T07:25:03;96121.91;;;13.90;95.08
9839;BME280;4958;48.150;11.506;2022-10-13T07:27:29;96116.19;;;13.95;94.65
9839;BME280;4958;48.150;11.506;2022-10-13T07:29:56;96112.06;;;14.00;94.34
9839;BME280;4958;48.150;11.506;2022-10-13T07:32:22;96117.06;;;14.02;94.68
9839;BME280;4958;48.150;11.506;2022-10-13T07:34:51;96116.50;;;14.06;94.57
9839;BME280;4958;48.150;11.506;2022-10-13T07:37:18;96117.69;;;14.04;94.87
9839;BME280;4958;48.150;11.506;2022-10-13T07:39:45;96121.84;;;14.05;95.10
9839;BME280;4958;48.150;11.506;2022-10-13T07:42:12;96121.00;;;13.98;96.12
9839;BME280;4958;48.150;11.506;2022-10-13T07:44:39;96113.09;;;14.06;95.35
9839;BME280;4958;48.150;11.506;2022-10-13T07:47:05;96118.34;;;14.12;95.09
9839;BME280;4958;48.150;11.506;2022-10-13T07:49:32;96105.03;;;14.15;94.99
9839;BME280;4958;48.150;11.506;2022-10-13T07:51:58;96109.03;;;14.18;95.07
9839;BME280;4958;48.150;11.506;2022-10-13T07:54:25;96112.69;;;14.24;94.85
9839;BME280;4958;48.150;11.506;2022-10-13T07:56:53;96108.09;;;14.26;95.05
9839;BME280;4958;48.150;11.506;2022-10-13T07:59:21;96108.69;;;14.21;95.51
9839;BME280;4958;48.150;11.506;2022-10-13T08:01:48;96103.31;;;14.23;95.34
9839;BME280;4958;48.150;11.506;2022-10-13T08:04:14;96102.91;;;14.26;95.26
9839;BME280;4958;48.150;11.506;2022-10-13T08:06:41;96104.59;;;14.33;95.07
9839;BME280;4958;48.150;11.506;2022-10-13T08:09:08;96101.25;;;14.39;94.53
9839;BME280;4958;48.150;11.506;2022-10-13T08:11:34;96094.13;;;14.41;95.00
9839;BME280;4958;48.150;11.506;2022-10-13T08:14:01;96097.25;;;14.37;95.45
9839;BME280;4958;48.150;11.506;2022-10-13T08:16:30;96095.84;;;14.34;95.54
9839;BME280;4958;48.150;11.506;2022-10-13T08:18:57;96108.59;;;14.36;94.96
9839;BME280;4958;48.150;11.506;2022-10-13T08:21:25;96100.41;;;14.32;95.62
9839;BME280;4958;48.150;11.506;2022-10-13T08:23:52;96097.38;;;14.29;96.29
9839;BME280;4958;48.150;11.506;2022-10-13T08:26:21;96098.94;;;14.23;96.64
9839;BME280;4958;48.150;11.506;2022-10-13T08:28:49;96109.31;;;14.23;97.40
9839;BME280;4958;48.150;11.506;2022-10-13T08:31:15;96116.13;;;14.31;97.34
9839;BME280;4958;48.150;11.506;2022-10-13T08:33:43;96111.94;;;14.30;97.21
9839;BME280;4958;48.150;11.506;2022-10-13T08:36:11;96110.38;;;14.35;97.18
9839;BME280;4958;48.150;11.506;2022-10-13T08:38:38;96107.53;;;14.30;97.17
9839;BME280;4958;48.150;11.506;2022-10-13T08:41:13;96102.19;;;14.32;96.95
9839;BME280;4958;48.150;11.506;2022-10-13T08:43:40;96106.28;;;14.41;96.48
9839;BME280;4958;48.150;11.506;2022-10-13T08:46:09;96115.25;;;14.45;96.41
9839;BME280;4958;48.150;11.506;2022-10-13T08:48:40;96110.34;;;14.50;95.79
9839;BME280;4958;48.150;11.506;2022-10-13T08:51:11;96105.72;;;14.45;96.18
9839;BME280;4958;48.150;11.506;2022-10-13T08:53:42;96097.00;;;14.53;95.87
9839;BME280;4958;48.150;11.506;2022-10-13T08:56:14;96095.88;;;14.62;95.36
9839;BME280;4958;48.150;11.506;2022-10-13T08:58:43;96088.31;;;14.67;95.22
9839;BME280;4958;48.150;11.506;2022-10-13T09:01:12;96088.63;;;14.79;94.07
9839;BME280;4958;48.150;11.506;2022-10-13T09:03:46;96089.25;;;14.88;93.52
9839;BME280;4958;48.150;11.506;2022-10-13T09:06:18;96083.25;;;14.80;92.08
9839;BME280;4958;48.150;11.506;2022-10-13T09:08:53;96087.88;;;14.92;91.77
9839;BME280;4958;48.150;11.506;2022-10-13T09:11:21;96095.91;;;14.97;90.95
9839;BME280;4958;48.150;11.506;2022-10-13T09:13:53;96096.34;;;15.07;90.80
9839;BME280;4958;48.150;11.506;2022-10-13T09:16:25;96082.81;;;15.11;89.91
9839;BME280;4958;48.150;11.506;2022-10-13T09:18:52;96091.56;;;15.10;89.51
9839;BME280;4958;48.150;11.506;2022-10-13T09:21:23;96080.59;;;15.08;88.77
9839;BME280;4958;48.150;11.506;2022-10-13T09:23:51;96075.63;;;15.13;88.07
9839;BME280;4958;48.150;11.506;2022-10-13T09:26:20;96086.25;;;15.25;88.34
9839;BME280;4958;48.150;11.506;2022-10-13T09:28:47;96076.72;;;15.32;87.71
9839;BME280;4958;48.150;11.506;2022-10-13T09:31:17;96076.13;;;15.37;87.55
9839;BME280;4958;48.150;11.506;2022-10-13T09:33:45;96075.72;;;15.33;86.03
9839;BME280;4958;48.150;11.506;2022-10-13T09:36:13;96068.56;;;15.35;86.38
9839;BME280;4958;48.150;11.506;2022-10-13T09:38:44;96076.34;;;15.42;86.07
9839;BME280;4958;48.150;11.506;2022-10-13T09:41:29;96075.72;;;15.40;84.71
9839;BME280;4958;48.150;11.506;2022-10-13T09:43:59;96075.94;;;15.38;83.68
9839;BME280;4958;48.150;11.506;2022-10-13T09:46:29;96071.16;;;15.35;82.83
9839;BME280;4958;48.150;11.506;2022-10-13T09:49:00;96067.19;;;15.39;82.59
9839;BME280;4958;48.150;11.506;2022-10-13T09:51:35;96068.16;;;15.38;80.57
9839;BME280;4958;48.150;11.506;2022-10-13T09:54:04;96069.78;;;15.39;81.35
9839;BME280;4958;48.150;11.506;2022-10-13T09:56:35;96069.78;;;15.39;80.65
9839;BME280;4958;48.150;11.506;2022-10-13T09:59:11;96061.19;;;15.39;80.12
9839;BME280;4958;48.150;11.506;2022-10-13T10:01:43;96063.91;;;15.24;79.83
9839;BME280;4958;48.150;11.506;2022-10-13T10:04:12;96062.34;;;15.30;80.42
9839;BME280;4958;48.150;11.506;2022-10-13T10:06:39;96060.16;;;15.33;79.98
9839;BME280;4958;48.150;11.506;2022-10-13T10:12:00;96063.78;;;15.39;79.87
9839;BME280;4958;48.150;11.506;2022-10-13T10:14:30;96070.94;;;15.37;79.68
9839;BME280;4958;48.150;11.506;2022-10-13T10:17:03;96073.75;;;15.35;80.21
9839;BME280;4958;48.150;11.506;2022-10-13T10:19:46;96061.75;;;15.34;80.21
9839;BME280;4958;48.150;11.506;2022-10-13T10:22:24;96065.38;;;15.46;79.60
9839;BME280;4958;48.150;11.506;2022-10-13T10:25:02;96059.66;;;15.64;79.45
9839;BME280;4958;48.150;11.506;2022-10-13T10:27:37;96063.69;;;15.80;76.65
9839;BME280;4958;48.150;11.506;2022-10-13T10:30:12;96060.31;;;15.86;73.89
9839;BME280;4958;48.150;11.506;2022-10-13T10:32:42;96060.94;;;15.95;74.57
9839;BME280;4958;48.150;11.506;2022-10-13T10:35:14;96056.75;;;16.13;74.70
9839;BME280;4958;48.150;11.506;2022-10-13T10:37:54;96056.34;;;16.23;73.74
9839;BME280;4958;48.150;11.506;2022-10-13T10:40:33;96049.34;;;16.17;71.88
9839;BME280;4958;48.150;11.506;2022-10-13T10:43:23;96043.16;;;16.24;72.97
9839;BME280;4958;48.150;11.506;2022-10-13T10:45:55;96042.97;;;16.33;73.37
9839;BME280;4958;48.150;11.506;2022-10-13T10:48:24;96040.75;;;16.43;72.40
9839;BME280;4958;48.150;11.506;2022-10-13T10:50:53;96032.34;;;16.47;72.69
9839;BME280;4958;48.150;11.506;2022-10-13T10:53:25;96028.34;;;16.51;73.18
9839;BME280;4958;48.150;11.506;2022-10-13T10:56:00;96029.34;;;16.44;73.04
9839;BME280;4958;48.150;11.506;2022-10-13T10:58:38;96019.38;;;16.54;71.82
9839;BME280;4958;48.150;11.506;2022-10-13T11:01:17;96012.16;;;16.43;71.70
9839;BME280;4958;48.150;11.506;2022-10-13T11:03:53;96027.16;;;16.41;72.85
9839;BME280;4958;48.150;11.506;2022-10-13T11:06:24;96011.56;;;16.41;72.57
9839;BME280;4958;48.150;11.506;2022-10-13T11:08:57;96009.16;;;16.46;72.59
9839;BME280;4958;48.150;11.506;2022-10-13T11:11:34;96001.38;;;16.46;72.27
9839;BME280;4958;48.150;11.506;2022-10-13T11:14:14;96003.38;;;16.50;71.89
9839;BME280;4958;48.150;11.506;2022-10-13T11:17:07;95996.34;;;16.57;71.72
9839;BME280;4958;48.150;11.506;2022-10-13T11:19:36;95993.13;;;16.62;72.03
9839;BME280;4958;48.150;11.506;2022-10-13T11:22:21;95990.97;;;16.66;72.08
9839;BME280;4958;48.150;11.506;2022-10-13T11:25:33;95984.56;;;16.68;70.98
9839;BME280;4958;48.150;11.506;2022-10-13T11:28:43;95980.91;;;16.76;70.34
9839;BME280;4958;48.150;11.506;2022-10-13T11:31:25;95977.50;;;16.75;71.68
9839;BME280;4958;48.150;11.506;2022-10-13T11:33:54;95977.09;;;16.78;71.34
9839;BME280;4958;48.150;11.506;2022-10-13T11:36:34;95963.09;;;16.79;71.46
9839;BME280;4958;48.150;11.506;2022-10-13T11:39:14;95978.88;;;16.91;70.81
9839;BME280;4958;48.150;11.506;2022-10-13T11:41:51;95977.28;;;16.90;71.16
9839;BME280;4958;48.150;11.506;2022-10-13T11:44:26;95982.41;;;17.10;71.01
9839;BME280;4958;48.150;11.506;2022-10-13T11:47:03;95978.81;;;17.11;69.80
9839;BME280;4958;48.150;11.506;2022-10-13T11:49:51;95978.22;;;17.09;70.36
9839;BME280;4958;48.150;11.506;2022-10-13T11:52:47;95973.16;;;17.14;71.28
9839;BME280;4958;48.150;11.506;2022-10-13T11:55:35;95961.59;;;17.10;70.96
9839;BME280;4958;48.150;11.506;2022-10-13T11:58:08;95961.41;;;17.05;71.80
9839;BME280;4958;48.150;11.506;2022-10-13T12:00:36;95964.81;;;17.05;72.30
9839;BME280;4958;48.150;11.506;2022-10-13T12:03:02;95953.41;;;17.00;71.79
9839;BME280;4958;48.150;11.506;2022-10-13T12:05:29;95944.00;;;16.99;71.22
9839;BME280;4958;48.150;11.506;2022-10-13T12:07:59;95935.81;;;16.95;70.66
9839;BME280;4958;48.150;11.506;2022-10-13T12:10:30;95938.06;;;16.91;71.71
9839;BME280;4958;48.150;11.506;2022-10-13T12:12:57;95931.63;;;16.94;71.86
9839;BME280;4958;48.150;11.506;2022-10-13T12:15:29;95932.59;;;17.00;71.79
9839;BME280;4958;48.150;11.506;2022-10-13T12:17:58;95927.28;;;16.88;71.33
9839;BME280;4958;48.150;11.506;2022-10-13T12:20:25;95926.41;;;16.94;71.58
9839;BME280;4958;48.150;11.506;2022-10-13T12:22:54;95925.22;;;16.97;71.78
9839;BME280;4958;48.150;11.506;2022-10-13T12:25:22;95919.19;;;17.03;71.63
9839;BME280;4958;48.150;11.506;2022-10-13T12:27:53;95922.59;;;17.03;71.39
9839;BME280;4958;48.150;11.506;2022-10-13T12:30:22;95922.19;;;17.06;71.02
9839;BME280;4958;48.150;11.506;2022-10-13T12:32:50;95924.56;;;17.08;70.81
9839;BME280;4958;48.150;11.506;2022-10-13T12:35:19;95921.91;;;17.14;71.10
9839;BME280;4958;48.150;11.506;2022-10-13T12:37:46;95917.16;;;17.11;71.18
9839;BME280;4958;48.150;11.506;2022-10-13T12:40:14;95917.50;;;17.15;71.26
9839;BME280;4958;48.150;11.506;2022-10-13T12:42:42;95927.59;;;16.98;69.88
9839;BME280;4958;48.150;11.506;2022-10-13T12:45:13;95922.59;;;16.97;70.66
9839;BME280;4958;48.150;11.506;2022-10-13T12:47:46;95915.59;;;17.04;70.34
9839;BME280;4958;48.150;11.506;2022-10-13T12:50:30;95915.91;;;17.14;70.44
9839;BME280;4958;48.150;11.506;2022-10-13T12:53:13;95916.72;;;17.14;69.96
9839;BME280;4958;48.150;11.506;2022-10-13T12:55:53;95906.56;;;17.06;70.72
9839;BME280;4958;48.150;11.506;2022-10-13T12:58:25;95909.78;;;17.02;69.97
9839;BME280;4958;48.150;11.506;2022-10-13T13:01:07;95903.38;;;17.04;70.75
9839;BME280;4958;48.150;11.506;2022-10-13T13:03:35;95895.34;;;17.06;72.30
9839;BME280;4958;48.150;11.506;2022-10-13T13:06:09;95897.34;;;17.10;71.85
9839;BME280;4958;48.150;11.506;2022-10-13T13:08:36;95892.72;;;17.12;70.54
9839;BME280;4958;48.150;11.506;2022-10-13T13:11:05;95894.94;;;17.09;70.65
9839;BME280;4958;48.150;11.506;2022-10-13T13:13:32;95884.13;;;17.12;70.42
9839;BME280;4958;48.150;11.506;2022-10-13T13:16:12;95886.25;;;17.21;70.57
9839;BME280;4958;48.150;11.506;2022-10-13T13:18:40;95889.06;;;17.20;70.71
9839;BME280;4958;48.150;11.506;2022-10-13T13:21:10;95885.84;;;17.24;70.48
9839;BME280;4958;48.150;11.506;2022-10-13T13:23:37;95887.44;;;17.25;70.82
9839;BME280;4958;48.150;11.506;2022-10-13T13:26:10;95890.84;;;17.26;69.96
9839;BME280;4958;48.150;11.506;2022-10-13T13:28:37;95890.03;;;17.25;70.11